sensor_id;sensor_type;location;lat;lon;timestamp;P1;durP1;ratioP1;P2;durP2;ratioP2
38224;SDS011;24025;48.138;11.428;2022-08-19T00:01:39;3.88;;;3.47;;
38224;SDS011;24025;48.138;11.428;2022-08-19T00:04:12;5.40;;;4.22;;
38224;SDS011;24025;48.138;11.428;2022-08-19T00:06:45;5.38;;;4.88;;
38224;SDS011;24025;48.138;11.428;2022-08-19T00:09:17;4.32;;;3.92;;
38224;SDS011;24025;48.138;11.428;2022-08-19T00:11:49;6.03;;;5.43;;
38224;SDS011;24025;48.138;11.428;2022-08-19T00:14:20;6.15;;;5.55;;
38224;SDS011;24025;48.138;11.428;2022-08-19T00:16:52;5.00;;;4.50;;
38224;SDS011;24025;48.138;11.428;2022-08-19T00:19:24;6.78;;;4.80;;
38224;SDS011;24025;48.138;11.428;2022-08-19T00:21:55;5.65;;;4.97;;
38224;SDS011;24025;48.138;11.428;2022-08-19T00:24:26;5.53;;;4.68;;
38224;SDS011;24025;48.138;11.428;2022-08-19T00:26:57;5.30;;;4.80;;
38224;SDS011;24025;48.138;11.428;2022-08-19T00:29:28;6.10;;;5.47;;
38224;SDS011;24025;48.138;11.428;2022-08-19T00:31:58;8.85;;;5.55;;
38224;SDS011;24025;48.138;11.428;2022-08-19T00:34:29;8.63;;;5.80;;
38224;SDS011;24025;48.138;11.428;2022-08-19T00:37:00;7.22;;;5.15;;
38224;SDS011;24025;48.138;11.428;2022-08-19T00:39:30;6.63;;;6.03;;
38224;SDS011;24025;48.138;11.428;2022-08-19T00:42:00;8.02;;;5.20;;
38224;SDS011;24025;48.138;11.428;2022-08-19T00:44:31;6.25;;;5.60;;
38224;SDS011;24025;48.138;11.428;2022-08-19T00:47:02;9.38;;;6.10;;
38224;SDS011;24025;48.138;11.428;2022-08-19T00:49:37;7.13;;;6.10;;
38224;SDS011;24025;48.138;11.428;2022-08-19T00:52:14;6.40;;;5.80;;
38224;SDS011;24025;48.138;11.428;2022-08-19T00:54:47;6.20;;;5.60;;
38224;SDS011;24025;48.138;11.428;2022-08-19T00:57:20;7.15;;;6.45;;
38224;SDS011;24025;48.138;11.428;2022-08-19T00:59:56;6.47;;;5.88;;
38224;SDS011;24025;48.138;11.428;2022-08-19T01:02:30;8.40;;;6.15;;
38224;SDS011;24025;48.138;11.428;2022-08-19T01:05:03;10.20;;;6.57;;
38224;SDS011;24025;48.138;11.428;2022-08-19T01:07:37;9.40;;;6.97;;
38224;SDS011;24025;48.138;11.428;2022-08-19T01:10:10;8.02;;;7.18;;
38224;SDS011;24025;48.138;11.428;2022-08-19T01:12:44;7.20;;;6.50;;
38224;SDS011;24025;48.138;11.428;2022-08-19T01:15:17;10.35;;;6.82;;
38224;SDS011;24025;48.138;11.428;2022-08-19T01:17:51;8.20;;;7.40;;
38224;SDS011;24025;48.138;11.428;2022-08-19T01:20:23;8.57;;;7.25;;
38224;SDS011;24025;48.138;11.428;2022-08-19T01:22:55;7.88;;;7.05;;
38224;SDS011;24025;48.138;11.428;2022-08-19T01:25:29;9.23;;;7.63;;
38224;SDS011;24025;48.138;11.428;2022-08-19T01:28:02;7.20;;;6.32;;
38224;SDS011;24025;48.138;11.428;2022-08-19T01:30:34;8.77;;;7.50;;
38224;SDS011;24025;48.138;11.428;2022-08-19T01:33:05;9.13;;;7.97;;
38224;SDS011;24025;48.138;11.428;2022-08-19T01:35:36;8.73;;;7.80;;
38224;SDS011;24025;48.138;11.428;2022-08-19T01:38:07;7.10;;;6.25;;
38224;SDS011;24025;48.138;11.428;2022-08-19T01:40:48;8.20;;;7.28;;
38224;SDS011;24025;48.138;11.428;2022-08-19T01:43:19;12.70;;;7.30;;
38224;SDS011;24025;48.138;11.428;2022-08-19T01:45:50;10.32;;;6.78;;
38224;SDS011;24025;48.138;11.428;2022-08-19T01:48:21;8.90;;;7.40;;
38224;SDS011;24025;48.138;11.428;2022-08-19T01:50:52;9.55;;;6.55;;
38224;SDS011;24025;48.138;11.428;2022-08-19T01:53:23;11.95;;;7.78;;
38224;SDS011;24025;48.138;11.428;2022-08-19T01:55:53;7.82;;;6.68;;
38224;SDS011;24025;48.138;11.428;2022-08-19T01:58:25;7.80;;;6.70;;
38224;SDS011;24025;48.138;11.428;2022-08-19T02:01:00;6.40;;;5.80;;
38224;SDS011;24025;48.138;11.428;2022-08-19T02:03:30;7.45;;;6.13;;
38224;SDS011;24025;48.138;11.428;2022-08-19T02:06:01;6.97;;;5.78;;
38224;SDS011;24025;48.138;11.428;2022-08-19T02:08:35;6.10;;;5.50;;
38224;SDS011;24025;48.138;11.428;2022-08-19T02:11:07;6.82;;;5.82;;
38224;SDS011;24025;48.138;11.428;2022-08-19T02:13:37;6.38;;;4.90;;
38224;SDS011;24025;48.138;11.428;2022-08-19T02:16:08;5.90;;;5.30;;
38224;SDS011;24025;48.138;11.428;2022-08-19T02:18:38;10.40;;;6.05;;
38224;SDS011;24025;48.138;11.428;2022-08-19T02:21:08;5.30;;;4.80;;
38224;SDS011;24025;48.138;11.428;2022-08-19T02:23:40;6.97;;;5.20;;
38224;SDS011;24025;48.138;11.428;2022-08-19T02:26:12;6.03;;;5.43;;
38224;SDS011;24025;48.138;11.428;2022-08-19T02:28:42;5.40;;;4.70;;
38224;SDS011;24025;48.138;11.428;2022-08-19T02:31:14;5.80;;;4.78;;
38224;SDS011;24025;48.138;11.428;2022-08-19T02:33:47;7.03;;;5.80;;
38224;SDS011;24025;48.138;11.428;2022-08-19T02:36:18;5.15;;;4.65;;
38224;SDS011;24025;48.138;11.428;2022-08-19T02:38:48;4.90;;;4.40;;
38224;SDS011;24025;48.138;11.428;2022-08-19T02:41:21;6.00;;;4.38;;
38224;SDS011;24025;48.138;11.428;2022-08-19T02:43:56;4.85;;;4.35;;
38224;SDS011;24025;48.138;11.428;2022-08-19T02:46:29;8.07;;;4.93;;
38224;SDS011;24025;48.138;11.428;2022-08-19T02:49:03;6.10;;;4.35;;
38224;SDS011;24025;48.138;11.428;2022-08-19T02:51:36;6.18;;;5.18;;
38224;SDS011;24025;48.138;11.428;2022-08-19T02:54:09;8.05;;;4.72;;
38224;SDS011;24025;48.138;11.428;2022-08-19T02:56:40;5.35;;;4.85;;
38224;SDS011;24025;48.138;11.428;2022-08-19T02:59:12;4.38;;;3.97;;
38224;SDS011;24025;48.138;11.428;2022-08-19T03:01:42;4.53;;;4.13;;
38224;SDS011;24025;48.138;11.428;2022-08-19T03:04:13;5.60;;;4.53;;
38224;SDS011;24025;48.138;11.428;2022-08-19T03:09:17;5.90;;;5.30;;
38224;SDS011;24025;48.138;11.428;2022-08-19T03:11:49;5.90;;;4.07;;
38224;SDS011;24025;48.138;11.428;2022-08-19T03:14:20;4.80;;;4.40;;
38224;SDS011;24025;48.138;11.428;2022-08-19T03:16:51;5.22;;;4.72;;
38224;SDS011;24025;48.138;11.428;2022-08-19T03:19:22;5.10;;;4.60;;
38224;SDS011;24025;48.138;11.428;2022-08-19T03:21:53;4.75;;;4.25;;
38224;SDS011;24025;48.138;11.428;2022-08-19T03:24:23;4.50;;;4.10;;
38224;SDS011;24025;48.138;11.428;2022-08-19T03:26:54;4.70;;;4.03;;
38224;SDS011;24025;48.138;11.428;2022-08-19T03:29:28;4.95;;;4.38;;
38224;SDS011;24025;48.138;11.428;2022-08-19T03:32:02;6.25;;;4.40;;
38224;SDS011;24025;48.138;11.428;2022-08-19T03:34:34;4.78;;;4.15;;
38224;SDS011;24025;48.138;11.428;2022-08-19T03:37:08;6.93;;;4.07;;
38224;SDS011;24025;48.138;11.428;2022-08-19T03:39:42;4.78;;;4.28;;
38224;SDS011;24025;48.138;11.428;2022-08-19T03:42:12;4.75;;;4.15;;
38224;SDS011;24025;48.138;11.428;2022-08-19T03:44:43;5.00;;;4.38;;
38224;SDS011;24025;48.138;11.428;2022-08-19T03:47:14;5.70;;;3.88;;
38224;SDS011;24025;48.138;11.428;2022-08-19T03:49:46;4.45;;;3.97;;
38224;SDS011;24025;48.138;11.428;2022-08-19T03:52:17;7.18;;;4.50;;
38224;SDS011;24025;48.138;11.428;2022-08-19T03:54:47;7.95;;;4.88;;
38224;SDS011;24025;48.138;11.428;2022-08-19T03:57:17;7.00;;;4.65;;
38224;SDS011;24025;48.138;11.428;2022-08-19T03:59:48;6.65;;;4.97;;
38224;SDS011;24025;48.138;11.428;2022-08-19T04:02:18;7.50;;;5.30;;
38224;SDS011;24025;48.138;11.428;2022-08-19T04:04:49;6.53;;;4.90;;
38224;SDS011;24025;48.138;11.428;2022-08-19T04:07:24;5.78;;;5.10;;
38224;SDS011;24025;48.138;11.428;2022-08-19T04:09:54;6.80;;;5.65;;
38224;SDS011;24025;48.138;11.428;2022-08-19T04:12:25;6.70;;;5.20;;
38224;SDS011;24025;48.138;11.428;2022-08-19T04:14:55;7.32;;;5.47;;
38224;SDS011;24025;48.138;11.428;2022-08-19T04:17:26;7.07;;;5.57;;
38224;SDS011;24025;48.138;11.428;2022-08-19T04:19:56;6.78;;;6.10;;
38224;SDS011;24025;48.138;11.428;2022-08-19T04:22:27;7.75;;;6.55;;
38224;SDS011;24025;48.138;11.428;2022-08-19T04:24:57;7.63;;;6.05;;
38224;SDS011;24025;48.138;11.428;2022-08-19T04:27:28;10.57;;;6.55;;
38224;SDS011;24025;48.138;11.428;2022-08-19T04:29:59;7.10;;;6.10;;
38224;SDS011;24025;48.138;11.428;2022-08-19T04:32:29;9.93;;;6.15;;
38224;SDS011;24025;48.138;11.428;2022-08-19T04:37:32;9.95;;;7.28;;
38224;SDS011;24025;48.138;11.428;2022-08-19T04:40:04;7.30;;;6.22;;
38224;SDS011;24025;48.138;11.428;2022-08-19T04:42:54;8.95;;;7.32;;
38224;SDS011;24025;48.138;11.428;2022-08-19T04:45:26;7.97;;;6.63;;
38224;SDS011;24025;48.138;11.428;2022-08-19T04:47:56;8.48;;;6.57;;
38224;SDS011;24025;48.138;11.428;2022-08-19T04:50:27;7.32;;;6.22;;
38224;SDS011;24025;48.138;11.428;2022-08-19T04:52:58;7.55;;;6.30;;
38224;SDS011;24025;48.138;11.428;2022-08-19T04:55:28;6.75;;;6.00;;
38224;SDS011;24025;48.138;11.428;2022-08-19T04:57:58;7.88;;;5.75;;
38224;SDS011;24025;48.138;11.428;2022-08-19T05:00:29;11.43;;;6.63;;
38224;SDS011;24025;48.138;11.428;2022-08-19T05:03:00;8.32;;;6.20;;
38224;SDS011;24025;48.138;11.428;2022-08-19T05:05:32;7.70;;;5.68;;
38224;SDS011;24025;48.138;11.428;2022-08-19T05:08:02;8.15;;;6.03;;
38224;SDS011;24025;48.138;11.428;2022-08-19T05:10:36;7.45;;;6.22;;
38224;SDS011;24025;48.138;11.428;2022-08-19T05:13:08;6.47;;;5.85;;
38224;SDS011;24025;48.138;11.428;2022-08-19T05:15:40;7.10;;;6.10;;
38224;SDS011;24025;48.138;11.428;2022-08-19T05:18:11;7.05;;;5.72;;
38224;SDS011;24025;48.138;11.428;2022-08-19T05:21:04;10.35;;;6.03;;
38224;SDS011;24025;48.138;11.428;2022-08-19T05:23:55;11.48;;;6.35;;
38224;SDS011;24025;48.138;11.428;2022-08-19T05:26:27;8.95;;;6.65;;
38224;SDS011;24025;48.138;11.428;2022-08-19T05:28:57;7.70;;;6.80;;
38224;SDS011;24025;48.138;11.428;2022-08-19T05:31:28;7.65;;;6.85;;
38224;SDS011;24025;48.138;11.428;2022-08-19T05:33:59;8.60;;;6.93;;
38224;SDS011;24025;48.138;11.428;2022-08-19T05:36:32;10.68;;;7.20;;
38224;SDS011;24025;48.138;11.428;2022-08-19T05:39:09;12.32;;;7.28;;
38224;SDS011;24025;48.138;11.428;2022-08-19T05:41:46;7.75;;;6.95;;
38224;SDS011;24025;48.138;11.428;2022-08-19T05:44:30;7.90;;;7.05;;
38224;SDS011;24025;48.138;11.428;2022-08-19T05:47:02;7.45;;;6.75;;
38224;SDS011;24025;48.138;11.428;2022-08-19T05:49:35;9.13;;;6.43;;
38224;SDS011;24025;48.138;11.428;2022-08-19T05:52:08;7.40;;;6.35;;
38224;SDS011;24025;48.138;11.428;2022-08-19T05:54:41;8.10;;;7.10;;
38224;SDS011;24025;48.138;11.428;2022-08-19T05:57:12;9.98;;;7.47;;
38224;SDS011;24025;48.138;11.428;2022-08-19T05:59:43;11.98;;;7.80;;
38224;SDS011;24025;48.138;11.428;2022-08-19T06:02:16;9.23;;;6.55;;
38224;SDS011;24025;48.138;11.428;2022-08-19T06:04:46;8.10;;;7.30;;
38224;SDS011;24025;48.138;11.428;2022-08-19T06:07:16;9.77;;;7.20;;
38224;SDS011;24025;48.138;11.428;2022-08-19T06:09:47;10.57;;;7.75;;
38224;SDS011;24025;48.138;11.428;2022-08-19T06:12:17;9.27;;;7.78;;
38224;SDS011;24025;48.138;11.428;2022-08-19T06:14:48;8.38;;;7.38;;
38224;SDS011;24025;48.138;11.428;2022-08-19T06:17:20;11.10;;;9.50;;
38224;SDS011;24025;48.138;11.428;2022-08-19T06:19:52;10.10;;;7.97;;
38224;SDS011;24025;48.138;11.428;2022-08-19T06:22:22;9.02;;;7.25;;
38224;SDS011;24025;48.138;11.428;2022-08-19T06:24:53;9.52;;;7.97;;
38224;SDS011;24025;48.138;11.428;2022-08-19T06:27:25;9.70;;;8.48;;
38224;SDS011;24025;48.138;11.428;2022-08-19T06:29:55;10.30;;;8.38;;
38224;SDS011;24025;48.138;11.428;2022-08-19T06:32:26;14.13;;;8.73;;
38224;SDS011;24025;48.138;11.428;2022-08-19T06:34:56;9.70;;;8.70;;
38224;SDS011;24025;48.138;11.428;2022-08-19T06:37:26;10.73;;;8.52;;
38224;SDS011;24025;48.138;11.428;2022-08-19T06:39:57;10.70;;;8.73;;
38224;SDS011;24025;48.138;11.428;2022-08-19T06:42:28;13.65;;;8.40;;
38224;SDS011;24025;48.138;11.428;2022-08-19T06:44:58;10.55;;;7.72;;
38224;SDS011;24025;48.138;11.428;2022-08-19T06:47:28;10.00;;;8.02;;
38224;SDS011;24025;48.138;11.428;2022-08-19T06:49:59;9.02;;;7.65;;
38224;SDS011;24025;48.138;11.428;2022-08-19T06:52:33;9.25;;;7.25;;
38224;SDS011;24025;48.138;11.428;2022-08-19T06:55:05;11.65;;;8.38;;
38224;SDS011;24025;48.138;11.428;2022-08-19T06:57:36;10.90;;;8.85;;
38224;SDS011;24025;48.138;11.428;2022-08-19T07:00:06;9.35;;;7.60;;
38224;SDS011;24025;48.138;11.428;2022-08-19T07:02:41;11.77;;;9.60;;
38224;SDS011;24025;48.138;11.428;2022-08-19T07:05:13;14.00;;;8.52;;
38224;SDS011;24025;48.138;11.428;2022-08-19T07:07:43;11.07;;;9.40;;
38224;SDS011;24025;48.138;11.428;2022-08-19T07:10:14;11.07;;;9.20;;
38224;SDS011;24025;48.138;11.428;2022-08-19T07:12:44;12.38;;;11.05;;
38224;SDS011;24025;48.138;11.428;2022-08-19T07:15:15;17.60;;;12.73;;
38224;SDS011;24025;48.138;11.428;2022-08-19T07:17:46;21.35;;;16.27;;
38224;SDS011;24025;48.138;11.428;2022-08-19T07:20:17;18.63;;;15.20;;
38224;SDS011;24025;48.138;11.428;2022-08-19T07:22:47;21.27;;;16.48;;
38224;SDS011;24025;48.138;11.428;2022-08-19T07:25:18;20.83;;;15.45;;
38224;SDS011;24025;48.138;11.428;2022-08-19T07:27:50;22.77;;;15.90;;
38224;SDS011;24025;48.138;11.428;2022-08-19T07:30:21;26.65;;;15.68;;
38224;SDS011;24025;48.138;11.428;2022-08-19T07:32:53;24.48;;;16.85;;
38224;SDS011;24025;48.138;11.428;2022-08-19T07:35:23;21.70;;;16.20;;
38224;SDS011;24025;48.138;11.428;2022-08-19T07:37:55;22.65;;;17.08;;
38224;SDS011;24025;48.138;11.428;2022-08-19T07:40:25;24.92;;;18.27;;
38224;SDS011;24025;48.138;11.428;2022-08-19T07:42:55;26.70;;;18.67;;
38224;SDS011;24025;48.138;11.428;2022-08-19T07:45:26;24.85;;;18.52;;
38224;SDS011;24025;48.138;11.428;2022-08-19T07:47:58;24.20;;;18.50;;
38224;SDS011;24025;48.138;11.428;2022-08-19T07:50:28;26.17;;;19.48;;
38224;SDS011;24025;48.138;11.428;2022-08-19T07:52:59;26.67;;;18.67;;
38224;SDS011;24025;48.138;11.428;2022-08-19T07:55:29;26.17;;;18.23;;
38224;SDS011;24025;48.138;11.428;2022-08-19T07:58:00;25.27;;;18.40;;
38224;SDS011;24025;48.138;11.428;2022-08-19T08:00:32;30.00;;;19.08;;
38224;SDS011;24025;48.138;11.428;2022-08-19T08:03:02;27.20;;;18.70;;
38224;SDS011;24025;48.138;11.428;2022-08-19T08:05:33;26.70;;;18.58;;
38224;SDS011;24025;48.138;11.428;2022-08-19T08:08:23;24.13;;;17.52;;
38224;SDS011;24025;48.138;11.428;2022-08-19T08:11:05;29.15;;;19.73;;
38224;SDS011;24025;48.138;11.428;2022-08-19T08:13:36;26.63;;;19.65;;
38224;SDS011;24025;48.138;11.428;2022-08-19T08:16:06;27.98;;;18.83;;
38224;SDS011;24025;48.138;11.428;2022-08-19T08:18:37;29.88;;;21.08;;
38224;SDS011;24025;48.138;11.428;2022-08-19T08:21:11;33.55;;;22.63;;
38224;SDS011;24025;48.138;11.428;2022-08-19T08:23:41;31.40;;;22.73;;
38224;SDS011;24025;48.138;11.428;2022-08-19T08:26:12;32.95;;;22.05;;
38224;SDS011;24025;48.138;11.428;2022-08-19T08:28:44;31.20;;;20.77;;
38224;SDS011;24025;48.138;11.428;2022-08-19T08:31:18;33.78;;;22.98;;
38224;SDS011;24025;48.138;11.428;2022-08-19T08:33:49;35.42;;;22.45;;
38224;SDS011;24025;48.138;11.428;2022-08-19T08:36:20;31.33;;;22.10;;
38224;SDS011;24025;48.138;11.428;2022-08-19T08:38:50;33.58;;;23.08;;
38224;SDS011;24025;48.138;11.428;2022-08-19T08:44:02;29.70;;;21.42;;
38224;SDS011;24025;48.138;11.428;2022-08-19T08:52:11;27.10;;;19.13;;
38224;SDS011;24025;48.138;11.428;2022-08-19T08:54:47;26.23;;;18.73;;
38224;SDS011;24025;48.138;11.428;2022-08-19T08:59:58;27.20;;;18.40;;
38224;SDS011;24025;48.138;11.428;2022-08-19T09:02:35;24.55;;;17.73;;
38224;SDS011;24025;48.138;11.428;2022-08-19T09:05:05;24.83;;;17.17;;
38224;SDS011;24025;48.138;11.428;2022-08-19T09:08:28;23.17;;;16.05;;
38224;SDS011;24025;48.138;11.428;2022-08-19T09:16:07;26.77;;;17.83;;
38224;SDS011;24025;48.138;11.428;2022-08-19T09:18:45;24.75;;;17.10;;
38224;SDS011;24025;48.138;11.428;2022-08-19T09:21:23;22.02;;;16.00;;
38224;SDS011;24025;48.138;11.428;2022-08-19T09:23:55;27.80;;;17.75;;
38224;SDS011;24025;48.138;11.428;2022-08-19T09:26:27;24.45;;;16.60;;
38224;SDS011;24025;48.138;11.428;2022-08-19T09:28:58;25.52;;;16.48;;
38224;SDS011;24025;48.138;11.428;2022-08-19T09:31:29;24.70;;;15.80;;
38224;SDS011;24025;48.138;11.428;2022-08-19T09:33:59;26.48;;;17.70;;
38224;SDS011;24025;48.138;11.428;2022-08-19T09:36:31;22.27;;;15.70;;
38224;SDS011;24025;48.138;11.428;2022-08-19T09:39:08;25.67;;;17.23;;
38224;SDS011;24025;48.138;11.428;2022-08-19T09:41:39;28.50;;;16.38;;
38224;SDS011;24025;48.138;11.428;2022-08-19T09:44:09;22.27;;;15.77;;
38224;SDS011;24025;48.138;11.428;2022-08-19T09:46:41;28.23;;;16.45;;
38224;SDS011;24025;48.138;11.428;2022-08-19T09:49:11;23.70;;;16.27;;
38224;SDS011;24025;48.138;11.428;2022-08-19T09:51:42;23.70;;;17.40;;
38224;SDS011;24025;48.138;11.428;2022-08-19T09:54:12;25.52;;;17.42;;
38224;SDS011;24025;48.138;11.428;2022-08-19T09:56:44;22.00;;;16.20;;
38224;SDS011;24025;48.138;11.428;2022-08-19T09:59:14;22.52;;;16.90;;
38224;SDS011;24025;48.138;11.428;2022-08-19T10:01:45;23.80;;;16.25;;
38224;SDS011;24025;48.138;11.428;2022-08-19T10:04:16;27.60;;;18.15;;
38224;SDS011;24025;48.138;11.428;2022-08-19T10:06:47;24.77;;;16.45;;
38224;SDS011;24025;48.138;11.428;2022-08-19T10:11:49;24.33;;;15.60;;
38224;SDS011;24025;48.138;11.428;2022-08-19T10:14:19;23.73;;;16.60;;
38224;SDS011;24025;48.138;11.428;2022-08-19T10:16:52;30.58;;;18.38;;
38224;SDS011;24025;48.138;11.428;2022-08-19T10:19:22;24.10;;;15.93;;
38224;SDS011;24025;48.138;11.428;2022-08-19T10:21:53;26.13;;;16.60;;
38224;SDS011;24025;48.138;11.428;2022-08-19T10:24:24;24.00;;;15.80;;
38224;SDS011;24025;48.138;11.428;2022-08-19T10:26:55;22.17;;;15.00;;
38224;SDS011;24025;48.138;11.428;2022-08-19T10:29:26;24.00;;;16.75;;
38224;SDS011;24025;48.138;11.428;2022-08-19T10:32:04;23.98;;;16.73;;
38224;SDS011;24025;48.138;11.428;2022-08-19T10:34:38;23.50;;;15.73;;
38224;SDS011;24025;48.138;11.428;2022-08-19T10:37:09;19.38;;;14.65;;
38224;SDS011;24025;48.138;11.428;2022-08-19T10:39:39;23.88;;;15.13;;
38224;SDS011;24025;48.138;11.428;2022-08-19T10:42:10;21.95;;;14.77;;
38224;SDS011;24025;48.138;11.428;2022-08-19T10:44:42;18.10;;;13.38;;
38224;SDS011;24025;48.138;11.428;2022-08-19T10:47:13;17.58;;;13.73;;
38224;SDS011;24025;48.138;11.428;2022-08-19T10:49:44;16.03;;;12.80;;
38224;SDS011;24025;48.138;11.428;2022-08-19T10:52:33;17.67;;;12.25;;
38224;SDS011;24025;48.138;11.428;2022-08-19T10:55:04;15.65;;;11.20;;
38224;SDS011;24025;48.138;11.428;2022-08-19T10:57:54;13.88;;;11.63;;
38224;SDS011;24025;48.138;11.428;2022-08-19T11:00:25;10.32;;;8.48;;
38224;SDS011;24025;48.138;11.428;2022-08-19T11:02:55;10.65;;;8.27;;
38224;SDS011;24025;48.138;11.428;2022-08-19T11:05:26;9.10;;;7.70;;
38224;SDS011;24025;48.138;11.428;2022-08-19T11:07:56;8.77;;;6.40;;
38224;SDS011;24025;48.138;11.428;2022-08-19T11:10:27;7.38;;;6.03;;
38224;SDS011;24025;48.138;11.428;2022-08-19T11:12:57;3.88;;;3.58;;
38224;SDS011;24025;48.138;11.428;2022-08-19T11:15:27;4.53;;;4.03;;
38224;SDS011;24025;48.138;11.428;2022-08-19T11:17:58;5.47;;;4.93;;
38224;SDS011;24025;48.138;11.428;2022-08-19T11:20:29;4.70;;;4.28;;
38224;SDS011;24025;48.138;11.428;2022-08-19T11:25:31;4.10;;;3.70;;
38224;SDS011;24025;48.138;11.428;2022-08-19T11:28:01;3.95;;;3.55;;
38224;SDS011;24025;48.138;11.428;2022-08-19T11:30:32;3.33;;;3.03;;
38224;SDS011;24025;48.138;11.428;2022-08-19T11:33:03;3.65;;;3.33;;
38224;SDS011;24025;48.138;11.428;2022-08-19T11:35:38;3.78;;;3.38;;
38224;SDS011;24025;48.138;11.428;2022-08-19T11:38:09;2.35;;;2.15;;
38224;SDS011;24025;48.138;11.428;2022-08-19T11:40:39;1.92;;;1.73;;
38224;SDS011;24025;48.138;11.428;2022-08-19T11:43:12;1.17;;;0.82;;
38224;SDS011;24025;48.138;11.428;2022-08-19T11:45:42;0.70;;;0.63;;
38224;SDS011;24025;48.138;11.428;2022-08-19T11:48:12;1.08;;;1.00;;
38224;SDS011;24025;48.138;11.428;2022-08-19T11:50:43;1.05;;;0.95;;
38224;SDS011;24025;48.138;11.428;2022-08-19T11:53:13;2.08;;;1.05;;
38224;SDS011;24025;48.138;11.428;2022-08-19T11:55:44;1.70;;;0.82;;
38224;SDS011;24025;48.138;11.428;2022-08-19T11:58:15;1.42;;;1.00;;
38224;SDS011;24025;48.138;11.428;2022-08-19T12:03:17;2.55;;;1.20;;
38224;SDS011;24025;48.138;11.428;2022-08-19T12:05:49;1.63;;;1.00;;
38224;SDS011;24025;48.138;11.428;2022-08-19T12:08:20;1.58;;;1.40;;
38224;SDS011;24025;48.138;11.428;2022-08-19T12:10:50;2.15;;;1.15;;
38224;SDS011;24025;48.138;11.428;2022-08-19T12:13:21;2.30;;;1.20;;
38224;SDS011;24025;48.138;11.428;2022-08-19T12:15:51;1.38;;;1.10;;
38224;SDS011;24025;48.138;11.428;2022-08-19T12:18:23;1.00;;;0.90;;
38224;SDS011;24025;48.138;11.428;2022-08-19T12:20:54;1.42;;;1.23;;
38224;SDS011;24025;48.138;11.428;2022-08-19T12:23:25;0.98;;;0.90;;
38224;SDS011;24025;48.138;11.428;2022-08-19T12:25:55;1.10;;;1.00;;
38224;SDS011;24025;48.138;11.428;2022-08-19T12:28:26;0.60;;;0.60;;
38224;SDS011;24025;48.138;11.428;2022-08-19T12:30:57;0.85;;;0.80;;
38224;SDS011;24025;48.138;11.428;2022-08-19T12:33:28;1.98;;;1.00;;
38224;SDS011;24025;48.138;11.428;2022-08-19T12:36:03;1.48;;;0.80;;
38224;SDS011;24025;48.138;11.428;2022-08-19T12:38:35;1.20;;;0.93;;
38224;SDS011;24025;48.138;11.428;2022-08-19T12:41:07;2.38;;;0.98;;
38224;SDS011;24025;48.138;11.428;2022-08-19T12:43:40;1.30;;;1.20;;
38224;SDS011;24025;48.138;11.428;2022-08-19T12:46:12;2.63;;;1.40;;
38224;SDS011;24025;48.138;11.428;2022-08-19T12:48:42;2.08;;;1.25;;
38224;SDS011;24025;48.138;11.428;2022-08-19T12:51:16;1.60;;;1.10;;
38224;SDS011;24025;48.138;11.428;2022-08-19T12:53:49;1.65;;;1.33;;
38224;SDS011;24025;48.138;11.428;2022-08-19T12:56:19;1.58;;;1.30;;
38224;SDS011;24025;48.138;11.428;2022-08-19T12:58:50;1.85;;;1.45;;
38224;SDS011;24025;48.138;11.428;2022-08-19T13:01:20;1.13;;;1.02;;
38224;SDS011;24025;48.138;11.428;2022-08-19T13:03:51;1.35;;;1.10;;
38224;SDS011;24025;48.138;11.428;2022-08-19T13:06:24;1.95;;;1.20;;
38224;SDS011;24025;48.138;11.428;2022-08-19T13:08:55;3.17;;;0.90;;
38224;SDS011;24025;48.138;11.428;2022-08-19T13:11:26;1.30;;;1.20;;
38224;SDS011;24025;48.138;11.428;2022-08-19T13:14:02;1.65;;;1.35;;
38224;SDS011;24025;48.138;11.428;2022-08-19T13:16:34;1.55;;;1.10;;
38224;SDS011;24025;48.138;11.428;2022-08-19T13:19:05;2.88;;;2.05;;
38224;SDS011;24025;48.138;11.428;2022-08-19T13:21:37;1.70;;;1.38;;
38224;SDS011;24025;48.138;11.428;2022-08-19T13:24:07;1.55;;;1.38;;
38224;SDS011;24025;48.138;11.428;2022-08-19T13:26:38;4.40;;;2.00;;
38224;SDS011;24025;48.138;11.428;2022-08-19T13:29:08;2.20;;;2.00;;
38224;SDS011;24025;48.138;11.428;2022-08-19T13:31:57;1.77;;;1.67;;
38224;SDS011;24025;48.138;11.428;2022-08-19T13:34:47;2.40;;;1.55;;
38224;SDS011;24025;48.138;11.428;2022-08-19T13:37:17;1.67;;;1.58;;
38224;SDS011;24025;48.138;11.428;2022-08-19T13:40:08;2.08;;;1.88;;
38224;SDS011;24025;48.138;11.428;2022-08-19T13:42:45;2.17;;;1.88;;
38224;SDS011;24025;48.138;11.428;2022-08-19T13:45:18;2.33;;;2.10;;
38224;SDS011;24025;48.138;11.428;2022-08-19T13:47:52;4.90;;;2.60;;
38224;SDS011;24025;48.138;11.428;2022-08-19T13:50:26;2.70;;;2.50;;
38224;SDS011;24025;48.138;11.428;2022-08-19T13:52:59;2.72;;;2.50;;
38224;SDS011;24025;48.138;11.428;2022-08-19T13:55:30;3.15;;;2.30;;
38224;SDS011;24025;48.138;11.428;2022-08-19T13:58:00;2.85;;;2.35;;
38224;SDS011;24025;48.138;11.428;2022-08-19T14:00:33;4.78;;;2.78;;
38224;SDS011;24025;48.138;11.428;2022-08-19T14:03:06;2.25;;;2.05;;
38224;SDS011;24025;48.138;11.428;2022-08-19T14:05:39;3.45;;;2.13;;
38224;SDS011;24025;48.138;11.428;2022-08-19T14:08:09;2.45;;;1.80;;
38224;SDS011;24025;48.138;11.428;2022-08-19T14:10:40;2.20;;;2.00;;
38224;SDS011;24025;48.138;11.428;2022-08-19T14:13:12;3.42;;;1.75;;
38224;SDS011;24025;48.138;11.428;2022-08-19T14:15:45;1.63;;;1.52;;
38224;SDS011;24025;48.138;11.428;2022-08-19T14:18:16;1.95;;;1.50;;
38224;SDS011;24025;48.138;11.428;2022-08-19T14:23:18;1.48;;;1.20;;
38224;SDS011;24025;48.138;11.428;2022-08-19T14:25:48;8.15;;;1.42;;
38224;SDS011;24025;48.138;11.428;2022-08-19T14:28:19;1.13;;;1.02;;
38224;SDS011;24025;48.138;11.428;2022-08-19T14:30:49;1.15;;;1.05;;
38224;SDS011;24025;48.138;11.428;2022-08-19T14:33:19;1.98;;;1.60;;
38224;SDS011;24025;48.138;11.428;2022-08-19T14:35:50;8.93;;;1.20;;
38224;SDS011;24025;48.138;11.428;2022-08-19T14:38:20;1.50;;;1.40;;
38224;SDS011;24025;48.138;11.428;2022-08-19T14:40:51;2.17;;;1.65;;
38224;SDS011;24025;48.138;11.428;2022-08-19T14:43:21;1.92;;;1.73;;
38224;SDS011;24025;48.138;11.428;2022-08-19T14:45:52;1.70;;;1.60;;
38224;SDS011;24025;48.138;11.428;2022-08-19T14:48:23;1.90;;;1.70;;
38224;SDS011;24025;48.138;11.428;2022-08-19T14:50:53;2.35;;;2.08;;
38224;SDS011;24025;48.138;11.428;2022-08-19T14:53:23;2.47;;;2.03;;
38224;SDS011;24025;48.138;11.428;2022-08-19T14:55:54;2.25;;;2.03;;
38224;SDS011;24025;48.138;11.428;2022-08-19T14:58:24;7.63;;;1.60;;
38224;SDS011;24025;48.138;11.428;2022-08-19T15:00:55;2.05;;;1.90;;
38224;SDS011;24025;48.138;11.428;2022-08-19T15:03:26;3.67;;;1.50;;
38224;SDS011;24025;48.138;11.428;2022-08-19T15:05:58;2.10;;;1.75;;
38224;SDS011;24025;48.138;11.428;2022-08-19T15:08:31;2.03;;;1.70;;
38224;SDS011;24025;48.138;11.428;2022-08-19T15:11:02;2.25;;;1.95;;
38224;SDS011;24025;48.138;11.428;2022-08-19T15:13:33;2.45;;;2.17;;
38224;SDS011;24025;48.138;11.428;2022-08-19T15:16:03;3.15;;;1.88;;
38224;SDS011;24025;48.138;11.428;2022-08-19T15:18:34;2.75;;;2.55;;
38224;SDS011;24025;48.138;11.428;2022-08-19T15:21:05;2.87;;;2.57;;
38224;SDS011;24025;48.138;11.428;2022-08-19T15:23:37;3.10;;;2.75;;
38224;SDS011;24025;48.138;11.428;2022-08-19T15:26:07;3.28;;;2.97;;
38224;SDS011;24025;48.138;11.428;2022-08-19T15:28:38;3.43;;;2.93;;